createdAt,value
2023-05-23T00:02:00.298Z,100.00
2023-05-23T00:04:46.726Z,100.00
2023-05-23T00:07:33.462Z,100.00
2023-05-23T00:10:20.130Z,100.00
2023-05-23T00:13:09.421Z,100.00
2023-05-23T00:15:56.329Z,100.00
2023-05-23T00:18:43.219Z,100.00
2023-05-23T00:21:30.709Z,100.00
2023-05-23T00:24:18.777Z,100.00
2023-05-23T00:27:05.815Z,100.00
2023-05-23T00:29:52.214Z,100.00
2023-05-23T00:32:38.812Z,100.00
2023-05-23T00:35:25.750Z,100.00
2023-05-23T00:38:12.119Z,100.00
2023-05-23T00:40:59.099Z,100.00
2023-05-23T00:43:45.691Z,100.00
2023-05-23T00:46:32.530Z,100.00
2023-05-23T00:49:20.277Z,100.00
2023-05-23T00:52:07.011Z,100.00
2023-05-23T00:54:53.669Z,100.00
2023-05-23T00:57:41.634Z,100.00
2023-05-23T01:00:28.926Z,100.00
2023-05-23T01:03:18.595Z,100.00
2023-05-23T01:06:05.440Z,100.00
2023-05-23T01:08:52.105Z,100.00
2023-05-23T01:11:50.683Z,100.00
2023-05-23T01:14:51.500Z,100.00
2023-05-23T01:18:04.219Z,100.00
2023-05-23T01:20:59.593Z,100.00
2023-05-23T01:24:17.078Z,100.00
2023-05-23T01:27:20.374Z,100.00
2023-05-23T01:30:11.361Z,100.00
2023-05-23T01:32:59.299Z,100.00
2023-05-23T01:35:46.488Z,100.00
2023-05-23T01:38:33.068Z,100.00
2023-05-23T01:41:19.795Z,100.00
2023-05-23T01:47:10.614Z,100.00
2023-05-23T01:49:58.235Z,100.00
2023-05-23T01:52:46.887Z,100.00
2023-05-23T01:55:34.727Z,100.00
2023-05-23T01:58:22.023Z,100.00
2023-05-23T02:01:09.812Z,100.00
2023-05-23T02:03:56.838Z,100.00
2023-05-23T02:06:43.380Z,100.00
2023-05-23T02:09:32.884Z,100.00
2023-05-23T02:12:19.560Z,100.00
2023-05-23T02:15:07.587Z,100.00
2023-05-23T02:17:54.075Z,100.00
2023-05-23T02:20:40.850Z,100.00
2023-05-23T02:23:27.187Z,100.00
2023-05-23T02:26:13.770Z,100.00
2023-05-23T02:29:02.286Z,100.00
2023-05-23T02:31:49.059Z,100.00
2023-05-23T02:34:35.795Z,100.00
2023-05-23T02:37:22.378Z,100.00
2023-05-23T02:40:09.435Z,100.00
2023-05-23T02:42:57.401Z,100.00
2023-05-23T02:45:43.935Z,100.00
2023-05-23T02:48:30.303Z,100.00
2023-05-23T02:51:17.301Z,100.00
2023-05-23T02:54:03.899Z,100.00
2023-05-23T02:56:54.840Z,100.00
2023-05-23T02:59:42.046Z,100.00
2023-05-23T03:02:28.828Z,100.00
2023-05-23T03:05:15.263Z,100.00
2023-05-23T03:08:01.810Z,100.00
2023-05-23T03:10:48.519Z,100.00
2023-05-23T03:13:36.067Z,100.00
2023-05-23T03:16:23.693Z,100.00
2023-05-23T03:19:10.437Z,100.00
2023-05-23T03:21:57.011Z,100.00
2023-05-23T03:24:43.712Z,100.00
2023-05-23T03:27:30.931Z,100.00
2023-05-23T03:30:17.474Z,100.00
2023-05-23T03:33:04.547Z,100.00
2023-05-23T03:35:51.390Z,100.00
2023-05-23T03:38:37.703Z,100.00
2023-05-23T03:41:24.226Z,100.00
2023-05-23T03:44:10.806Z,100.00
2023-05-23T03:46:57.204Z,100.00
2023-05-23T03:49:45.175Z,100.00
2023-05-23T03:52:32.210Z,100.00
2023-05-23T03:55:25.433Z,100.00
2023-05-23T03:58:12.027Z,100.00
2023-05-23T04:01:02.131Z,100.00
2023-05-23T04:03:49.502Z,100.00
2023-05-23T04:06:38.268Z,100.00
2023-05-23T04:09:24.759Z,100.00
2023-05-23T04:12:12.016Z,100.00
2023-05-23T04:14:58.974Z,100.00
2023-05-23T04:17:45.415Z,100.00
2023-05-23T04:20:31.998Z,100.00
2023-05-23T04:23:19.127Z,100.00
2023-05-23T04:26:10.135Z,100.00
2023-05-23T04:29:01.915Z,100.00
2023-05-23T04:31:48.561Z,100.00
2023-05-23T04:34:35.124Z,100.00
2023-05-23T04:37:26.281Z,100.00
2023-05-23T04:40:13.574Z,100.00
2023-05-23T04:43:19.941Z,100.00
2023-05-23T04:46:15.884Z,100.00
2023-05-23T04:49:04.208Z,100.00
2023-05-23T04:51:51.194Z,100.00
2023-05-23T04:54:44.726Z,100.00
2023-05-23T04:57:31.458Z,100.00
2023-05-23T05:00:18.351Z,100.00
2023-05-23T05:03:05.479Z,100.00
2023-05-23T05:05:53.770Z,100.00
2023-05-23T05:08:43.277Z,100.00
2023-05-23T05:11:30.796Z,100.00
2023-05-23T05:14:17.478Z,100.00
2023-05-23T05:17:04.455Z,100.00
2023-05-23T05:19:59.368Z,100.00
2023-05-23T05:22:46.272Z,100.00
2023-05-23T05:25:35.774Z,100.00
2023-05-23T05:28:23.363Z,100.00
2023-05-23T05:31:15.165Z,100.00
2023-05-23T05:34:02.158Z,100.00
2023-05-23T05:36:48.716Z,100.00
2023-05-23T05:39:37.283Z,100.00
2023-05-23T05:42:25.242Z,100.00
2023-05-23T05:45:12.366Z,100.00
2023-05-23T05:48:00.404Z,100.00
2023-05-23T05:50:47.180Z,100.00
2023-05-23T05:53:33.745Z,100.00
2023-05-23T05:56:22.735Z,100.00
2023-05-23T05:59:09.225Z,100.00
2023-05-23T06:01:57.414Z,100.00
2023-05-23T06:04:44.014Z,100.00
2023-05-23T06:07:30.350Z,100.00
2023-05-23T06:10:16.795Z,100.00
2023-05-23T06:13:03.353Z,100.00
2023-05-23T06:15:50.954Z,100.00
2023-05-23T06:18:37.591Z,100.00
2023-05-23T06:21:24.176Z,100.00
2023-05-23T06:24:11.284Z,100.00
2023-05-23T06:26:57.499Z,100.00
2023-05-23T06:29:44.647Z,100.00
2023-05-23T06:32:31.158Z,100.00
2023-05-23T06:35:18.214Z,100.00
2023-05-23T06:38:04.614Z,100.00
2023-05-23T06:40:51.185Z,100.00
2023-05-23T06:43:38.620Z,100.00
2023-05-23T06:46:47.679Z,100.00
2023-05-23T06:49:35.169Z,100.00
2023-05-23T06:52:21.879Z,100.00
2023-05-23T06:55:08.860Z,100.00
2023-05-23T06:57:57.138Z,100.00
2023-05-23T07:00:44.610Z,100.00
2023-05-23T07:03:41.793Z,100.00
2023-05-23T07:06:29.176Z,100.00
2023-05-23T07:09:17.423Z,100.00
2023-05-23T07:12:03.873Z,100.00
2023-05-23T07:14:50.460Z,100.00
2023-05-23T07:17:38.237Z,100.00
2023-05-23T07:20:25.229Z,100.00
2023-05-23T07:23:17.756Z,100.00
2023-05-23T07:26:05.355Z,100.00
2023-05-23T07:29:01.104Z,100.00
2023-05-23T07:31:47.759Z,100.00
2023-05-23T07:34:34.658Z,97.34
2023-05-23T07:37:22.000Z,99.62
2023-05-23T07:40:12.181Z,98.01
2023-05-23T07:43:00.199Z,98.06
2023-05-23T07:45:46.731Z,97.97
2023-05-23T07:48:33.362Z,99.35
2023-05-23T07:51:21.359Z,99.74
2023-05-23T07:54:09.381Z,98.39
2023-05-23T07:56:59.502Z,97.92
2023-05-23T07:59:46.336Z,99.90
2023-05-23T08:02:33.435Z,98.95
2023-05-23T08:05:22.761Z,100.00
2023-05-23T08:08:12.244Z,99.82
2023-05-23T08:10:59.141Z,100.00
2023-05-23T08:13:50.491Z,100.00
2023-05-23T08:17:03.416Z,100.00
2023-05-23T08:19:50.056Z,100.00
2023-05-23T08:22:37.603Z,100.00
2023-05-23T08:25:30.232Z,100.00
2023-05-23T08:28:17.345Z,100.00
2023-05-23T08:31:12.047Z,100.00
2023-05-23T08:33:59.608Z,99.37
2023-05-23T08:36:46.073Z,99.01
2023-05-23T08:39:37.111Z,97.94
2023-05-23T08:42:43.933Z,95.82
2023-05-23T08:45:34.771Z,95.88
2023-05-23T08:48:22.744Z,92.68
2023-05-23T08:51:14.079Z,91.98
2023-05-23T08:54:01.306Z,90.64
2023-05-23T08:56:49.406Z,90.24
2023-05-23T08:59:36.804Z,88.41
2023-05-23T09:02:24.712Z,87.94
2023-05-23T09:05:15.727Z,85.37
2023-05-23T09:08:02.180Z,82.97
2023-05-23T09:10:50.038Z,83.79
2023-05-23T09:13:36.840Z,82.72
2023-05-23T09:16:34.962Z,84.38
2023-05-23T09:19:26.795Z,82.07
2023-05-23T09:22:26.052Z,78.36
2023-05-23T09:25:23.423Z,77.76
2023-05-23T09:28:09.940Z,75.43
2023-05-23T09:31:01.927Z,75.30
2023-05-23T09:33:50.930Z,73.83
2023-05-23T09:36:41.394Z,68.84
2023-05-23T09:39:28.784Z,69.22
2023-05-23T09:42:25.001Z,67.27
2023-05-23T09:45:16.242Z,74.00
2023-05-23T09:48:02.969Z,76.22
2023-05-23T09:50:51.560Z,77.58
2023-05-23T09:53:39.032Z,78.66
2023-05-23T09:56:27.013Z,78.09
2023-05-23T09:59:16.106Z,76.63
2023-05-23T10:02:03.820Z,75.29
2023-05-23T10:04:52.963Z,77.29
2023-05-23T10:07:39.804Z,74.21
2023-05-23T10:10:31.440Z,83.14
2023-05-23T10:13:19.326Z,73.22
2023-05-23T10:16:17.960Z,73.16
2023-05-23T10:19:17.960Z,70.26
2023-05-23T10:22:08.645Z,70.18
2023-05-23T10:24:55.591Z,71.54
2023-05-23T10:27:42.893Z,66.37
2023-05-23T10:30:29.650Z,66.94
2023-05-23T10:33:17.584Z,67.12
2023-05-23T10:36:10.523Z,64.30
2023-05-23T10:39:16.915Z,62.32
2023-05-23T10:42:12.005Z,62.51
2023-05-23T10:45:22.569Z,62.53
2023-05-23T10:48:23.656Z,62.55
2023-05-23T10:51:12.427Z,65.51
2023-05-23T10:53:58.890Z,66.03
2023-05-23T10:56:45.446Z,65.42
2023-05-23T10:59:32.236Z,66.46
2023-05-23T11:02:25.418Z,64.07
2023-05-23T11:05:25.044Z,68.42
2023-05-23T11:08:16.247Z,63.98
2023-05-23T11:11:04.129Z,61.95
2023-05-23T11:13:56.640Z,61.60
2023-05-23T11:16:46.389Z,58.80
2023-05-23T11:19:33.079Z,59.16
2023-05-23T11:22:20.572Z,58.63
2023-05-23T11:25:10.163Z,59.12
2023-05-23T11:27:56.978Z,57.81
2023-05-23T11:30:43.655Z,58.91
2023-05-23T11:33:30.567Z,61.41
2023-05-23T11:36:17.373Z,61.69
2023-05-23T11:39:04.505Z,60.21
2023-05-23T11:42:11.011Z,56.48
2023-05-23T11:44:58.112Z,59.25
2023-05-23T11:47:44.431Z,58.19
2023-05-23T11:50:31.024Z,57.29
2023-05-23T11:53:20.765Z,59.33
2023-05-23T11:56:08.268Z,59.16
2023-05-23T11:58:57.157Z,60.49
2023-05-23T12:01:44.840Z,58.95
2023-05-23T12:04:31.379Z,59.68
2023-05-23T12:07:20.610Z,58.10
2023-05-23T12:10:07.873Z,57.15
2023-05-23T12:12:54.527Z,56.33
2023-05-23T12:15:41.066Z,56.23
2023-05-23T12:18:32.754Z,56.80
2023-05-23T12:21:19.133Z,57.63
2023-05-23T12:24:17.238Z,57.39
2023-05-23T12:27:04.211Z,57.20
2023-05-23T12:29:53.983Z,56.38
2023-05-23T12:32:45.577Z,55.34
2023-05-23T12:35:32.304Z,55.67
2023-05-23T12:38:18.879Z,56.37
2023-05-23T12:41:09.736Z,57.97
2023-05-23T12:43:57.219Z,57.15
2023-05-23T12:46:43.666Z,58.45
2023-05-23T12:49:29.943Z,59.60
2023-05-23T12:52:16.417Z,62.09
2023-05-23T12:55:03.976Z,62.55
2023-05-23T12:57:50.915Z,63.67
2023-05-23T13:00:37.787Z,65.07
2023-05-23T13:03:25.140Z,67.03
2023-05-23T13:06:11.498Z,68.69
2023-05-23T13:08:58.641Z,68.60
2023-05-23T13:11:45.097Z,67.12
2023-05-23T13:14:31.512Z,66.91
2023-05-23T13:17:18.456Z,66.16
2023-05-23T13:20:05.381Z,65.40
2023-05-23T13:22:52.017Z,65.94
2023-05-23T13:25:38.425Z,69.22
2023-05-23T13:28:24.968Z,66.42
2023-05-23T13:31:11.738Z,66.49
2023-05-23T13:33:58.304Z,67.40
2023-05-23T13:36:44.683Z,65.67
2023-05-23T13:39:31.286Z,65.25
2023-05-23T13:42:17.943Z,65.28
2023-05-23T13:45:05.053Z,62.67
2023-05-23T13:47:51.422Z,62.72
2023-05-23T13:50:38.106Z,63.20
2023-05-23T13:53:24.581Z,61.55
2023-05-23T13:56:11.472Z,59.63
2023-05-23T13:58:57.848Z,60.60
2023-05-23T14:01:44.306Z,59.42
2023-05-23T14:04:30.745Z,56.84
2023-05-23T14:07:18.203Z,56.73
2023-05-23T14:10:05.400Z,56.31
2023-05-23T14:12:51.973Z,56.93
2023-05-23T14:15:38.840Z,57.50
2023-05-23T14:18:25.045Z,57.49
2023-05-23T14:21:11.380Z,58.91
2023-05-23T14:23:58.027Z,59.07
2023-05-23T14:26:44.612Z,60.96
2023-05-23T14:29:31.727Z,60.34
2023-05-23T14:32:18.385Z,56.40
2023-05-23T14:35:11.021Z,56.36
2023-05-23T14:37:57.412Z,58.54
2023-05-23T14:40:44.415Z,59.69
2023-05-23T14:43:31.502Z,58.97
2023-05-23T14:46:18.312Z,59.56
2023-05-23T14:49:04.816Z,60.21
2023-05-23T14:51:51.784Z,62.07
2023-05-23T14:54:43.501Z,62.32
2023-05-23T14:57:29.891Z,62.58
2023-05-23T15:00:17.444Z,63.03
2023-05-23T15:03:04.661Z,61.86
2023-05-23T15:05:51.421Z,63.98
2023-05-23T15:08:37.799Z,61.65
2023-05-23T15:11:26.672Z,60.96
2023-05-23T15:14:14.123Z,61.96
2023-05-23T15:17:07.682Z,61.51
2023-05-23T15:19:56.976Z,59.73
2023-05-23T15:22:43.996Z,59.83
2023-05-23T15:25:47.078Z,61.97
2023-05-23T15:28:35.836Z,63.94
2023-05-23T15:31:22.501Z,66.53
2023-05-23T15:34:09.098Z,63.87
2023-05-23T15:36:56.358Z,63.87
2023-05-23T15:39:43.054Z,63.24
2023-05-23T15:42:29.478Z,63.43
2023-05-23T15:45:15.904Z,64.93
2023-05-23T15:48:02.627Z,63.59
2023-05-23T15:50:49.309Z,65.18
2023-05-23T15:53:47.851Z,64.84
2023-05-23T15:56:43.061Z,64.63
2023-05-23T15:59:31.342Z,62.82
2023-05-23T16:02:19.010Z,63.40
2023-05-23T16:05:06.098Z,64.63
2023-05-23T16:07:52.718Z,64.79
2023-05-23T16:10:39.333Z,63.75
2023-05-23T16:13:25.735Z,64.47
2023-05-23T16:16:12.376Z,64.69
2023-05-23T16:18:58.684Z,65.82
2023-05-23T16:21:45.835Z,64.87
2023-05-23T16:24:32.113Z,64.90
2023-05-23T16:27:18.432Z,65.09
2023-05-23T16:30:06.206Z,63.17
2023-05-23T16:32:52.599Z,63.99
2023-05-23T16:35:39.059Z,64.35
2023-05-23T16:38:25.447Z,64.57
2023-05-23T16:41:12.017Z,65.74
2023-05-23T16:43:58.545Z,66.39
2023-05-23T16:46:45.155Z,66.85
2023-05-23T16:49:31.831Z,68.11
2023-05-23T16:52:18.350Z,69.23
2023-05-23T16:55:05.159Z,68.91
2023-05-23T16:57:51.867Z,68.39
2023-05-23T17:00:38.609Z,69.18
2023-05-23T17:03:24.974Z,69.24
2023-05-23T17:06:11.786Z,70.58
2023-05-23T17:08:58.325Z,70.69
2023-05-23T17:11:45.332Z,71.34
2023-05-23T17:14:32.313Z,71.25
2023-05-23T17:17:18.656Z,71.14
2023-05-23T17:20:05.968Z,71.42
2023-05-23T17:22:52.633Z,71.13
2023-05-23T17:25:39.403Z,69.77
2023-05-23T17:28:26.376Z,69.90
2023-05-23T17:31:12.994Z,70.81
2023-05-23T17:33:59.522Z,72.66
2023-05-23T17:36:46.064Z,72.29
2023-05-23T17:39:32.581Z,72.96
2023-05-23T17:42:19.016Z,74.14
2023-05-23T17:45:06.038Z,74.91
2023-05-23T17:47:52.869Z,73.86
2023-05-23T17:50:39.096Z,74.33
2023-05-23T17:53:27.110Z,74.14
2023-05-23T17:56:13.364Z,75.09
2023-05-23T17:59:03.275Z,76.78
2023-05-23T18:01:49.530Z,76.52
2023-05-23T18:04:35.958Z,75.94
2023-05-23T18:07:22.713Z,77.58
2023-05-23T18:10:09.636Z,76.39
2023-05-23T18:12:56.447Z,76.92
2023-05-23T18:15:42.692Z,77.46
2023-05-23T18:18:28.974Z,77.19
2023-05-23T18:21:18.009Z,77.58
2023-05-23T18:24:05.041Z,79.51
2023-05-23T18:26:51.650Z,80.34
2023-05-23T18:29:38.204Z,81.02
2023-05-23T18:32:24.625Z,81.25
2023-05-23T18:35:11.305Z,81.97
2023-05-23T18:37:57.697Z,82.27
2023-05-23T18:40:44.325Z,80.85
2023-05-23T18:43:30.721Z,82.51
2023-05-23T18:46:17.441Z,82.21
2023-05-23T18:49:04.873Z,82.67
2023-05-23T18:51:53.098Z,81.14
2023-05-23T18:54:39.315Z,82.59
2023-05-23T18:57:26.102Z,82.45
2023-05-23T19:00:13.409Z,82.39
2023-05-23T19:03:00.016Z,83.48
2023-05-23T19:05:46.593Z,84.30
2023-05-23T19:08:33.712Z,84.88
2023-05-23T19:11:20.170Z,86.57
2023-05-23T19:14:06.683Z,87.33
2023-05-23T19:16:54.994Z,86.51
2023-05-23T19:19:41.322Z,87.51
2023-05-23T19:22:36.073Z,87.87
2023-05-23T19:25:30.730Z,87.69
2023-05-23T19:28:17.398Z,89.15
2023-05-23T19:31:04.043Z,88.28
2023-05-23T19:33:50.562Z,90.39
2023-05-23T19:36:37.273Z,90.37
2023-05-23T19:39:23.674Z,91.10
2023-05-23T19:42:10.246Z,91.26
2023-05-23T19:44:57.779Z,92.50
2023-05-23T19:47:44.320Z,92.29
2023-05-23T19:50:31.450Z,91.39
2023-05-23T19:53:18.207Z,91.18
2023-05-23T19:56:05.192Z,90.84
2023-05-23T19:58:51.814Z,88.29
2023-05-23T20:01:38.426Z,86.74
2023-05-23T20:04:25.193Z,85.17
2023-05-23T20:07:11.945Z,83.77
2023-05-23T20:09:58.566Z,83.65
2023-05-23T20:12:45.667Z,83.49
2023-05-23T20:18:25.407Z,84.08
2023-05-23T20:21:12.061Z,83.58
2023-05-23T20:23:58.807Z,83.48
2023-05-23T20:26:45.815Z,83.37
2023-05-23T20:29:34.714Z,83.42
2023-05-23T20:32:20.972Z,84.34
2023-05-23T20:35:07.500Z,83.65
2023-05-23T20:37:53.824Z,84.23
2023-05-23T20:40:40.948Z,84.14
2023-05-23T20:43:28.877Z,85.41
2023-05-23T20:46:15.668Z,85.56
2023-05-23T20:49:02.116Z,85.96
2023-05-23T20:51:49.453Z,85.60
2023-05-23T20:54:36.545Z,85.60
2023-05-23T20:57:23.035Z,85.48
2023-05-23T21:00:13.314Z,86.24
2023-05-23T21:02:59.808Z,86.28
2023-05-23T21:05:46.195Z,86.48
2023-05-23T21:08:34.706Z,86.29
2023-05-23T21:11:22.262Z,86.45
2023-05-23T21:14:08.946Z,86.21
2023-05-23T21:16:55.691Z,86.31
2023-05-23T21:19:42.389Z,87.32
2023-05-23T21:22:29.357Z,87.48
2023-05-23T21:25:17.794Z,87.10
2023-05-23T21:28:04.123Z,85.80
2023-05-23T21:30:50.661Z,86.06
2023-05-23T21:33:36.948Z,86.29
2023-05-23T21:36:23.410Z,86.51
2023-05-23T21:39:09.799Z,85.06
2023-05-23T21:41:56.178Z,83.75
2023-05-23T21:44:42.435Z,84.25
2023-05-23T21:47:28.713Z,83.66
2023-05-23T21:50:15.112Z,83.03
2023-05-23T21:53:01.876Z,83.50
2023-05-23T21:55:49.844Z,83.67
2023-05-23T21:58:36.310Z,83.76
2023-05-23T22:01:22.763Z,83.85
2023-05-23T22:04:09.302Z,83.37
2023-05-23T22:06:56.121Z,83.65
2023-05-23T22:09:42.467Z,84.85
2023-05-23T22:12:28.819Z,84.81
2023-05-23T22:15:15.474Z,84.41
2023-05-23T22:18:01.752Z,85.07
2023-05-23T22:20:49.221Z,84.81
2023-05-23T22:23:37.311Z,84.72
2023-05-23T22:26:23.988Z,84.32
2023-05-23T22:29:10.469Z,84.73
2023-05-23T22:31:57.781Z,86.12
2023-05-23T22:34:45.452Z,85.48
2023-05-23T22:37:31.923Z,84.32
2023-05-23T22:40:18.531Z,83.79
2023-05-23T22:43:05.962Z,84.46
2023-05-23T22:45:52.430Z,84.77
2023-05-23T22:48:39.090Z,84.02
2023-05-23T22:51:25.760Z,83.23
2023-05-23T22:54:12.335Z,82.69
2023-05-23T22:56:59.002Z,81.69
2023-05-23T22:59:45.657Z,81.73
2023-05-23T23:02:32.235Z,82.71
2023-05-23T23:05:18.525Z,82.03
2023-05-23T23:08:04.957Z,82.12
2023-05-23T23:10:51.466Z,81.93
2023-05-23T23:13:37.959Z,82.33
2023-05-23T23:16:24.520Z,82.23
2023-05-23T23:19:11.177Z,82.62
2023-05-23T23:21:57.582Z,83.25
2023-05-23T23:24:45.318Z,84.15
2023-05-23T23:27:32.340Z,83.92
2023-05-23T23:30:18.702Z,84.91
2023-05-23T23:33:05.050Z,85.57
2023-05-23T23:35:51.769Z,85.49
2023-05-23T23:38:38.466Z,84.98
2023-05-23T23:41:24.993Z,86.29
2023-05-23T23:44:11.819Z,87.08
2023-05-23T23:46:58.635Z,87.54
2023-05-23T23:49:47.346Z,88.98
2023-05-23T23:52:34.030Z,89.30
2023-05-23T23:55:20.438Z,88.90
2023-05-23T23:58:06.818Z,89.22
